Studley, United Kingdom
Current Conditions -  °F | °C
As of 2:50 AM on Thursday 23 Oct 2014 (Local Time) from EGBB Reporting Station
Overcast Overcast  
Wind Chill: 54°   Ceiling: 2800
Heat Index: 54°   Visibility: 6mi
Dew Point: 45°   Wind: 8mph
Humidity: 72%   Direction: 220°SW
Pressure: 30.09"   Gusts: NA
Location:  52.27°N, 1.89°W
Report Text: EGBB 230150Z AUTO 22007KT 170V270 9999 OVC028/// 12/07 Q1019
Loading
Personal Weather Stations






























Interactive Weather Map
Tropical Storm Tracking
New forecast layout! Learn more

10-Day Weather Forecast

Advertisements
Track Severe Weather on mobile